sensor_id;sensor_type;location;lat;lon;timestamp;P1;durP1;ratioP1;P2;durP2;ratioP2
70744;SDS011;59284;31.390;34.904;2022-12-29T00:02:16;36.33;;;16.48;;
70744;SDS011;59284;31.390;34.904;2022-12-29T00:04:42;37.13;;;19.50;;
70744;SDS011;59284;31.390;34.904;2022-12-29T00:07:08;36.40;;;16.85;;
70744;SDS011;59284;31.390;34.904;2022-12-29T00:09:34;40.90;;;18.80;;
70744;SDS011;59284;31.390;34.904;2022-12-29T00:12:01;43.23;;;19.30;;
70744;SDS011;59284;31.390;34.904;2022-12-29T00:14:27;39.25;;;18.67;;
70744;SDS011;59284;31.390;34.904;2022-12-29T00:17:12;41.17;;;18.30;;
70744;SDS011;59284;31.390;34.904;2022-12-29T00:19:38;37.90;;;19.52;;
70744;SDS011;59284;31.390;34.904;2022-12-29T00:22:23;39.47;;;19.45;;
70744;SDS011;59284;31.390;34.904;2022-12-29T00:25:08;37.67;;;17.97;;
70744;SDS011;59284;31.390;34.904;2022-12-29T00:27:54;41.03;;;19.40;;
70744;SDS011;59284;31.390;34.904;2022-12-29T00:30:38;35.65;;;18.38;;
70744;SDS011;59284;31.390;34.904;2022-12-29T00:33:25;38.47;;;19.23;;
70744;SDS011;59284;31.390;34.904;2022-12-29T00:36:14;42.17;;;19.38;;
70744;SDS011;59284;31.390;34.904;2022-12-29T00:38:56;38.90;;;19.63;;
70744;SDS011;59284;31.390;34.904;2022-12-29T00:41:44;40.15;;;20.08;;
70744;SDS011;59284;31.390;34.904;2022-12-29T00:44:28;42.63;;;19.27;;
70744;SDS011;59284;31.390;34.904;2022-12-29T00:46:54;40.15;;;19.02;;
70744;SDS011;59284;31.390;34.904;2022-12-29T00:49:19;39.73;;;19.37;;
70744;SDS011;59284;31.390;34.904;2022-12-29T00:52:02;38.60;;;18.92;;
70744;SDS011;59284;31.390;34.904;2022-12-29T00:54:31;36.78;;;19.50;;
70744;SDS011;59284;31.390;34.904;2022-12-29T00:56:58;39.77;;;19.10;;
70744;SDS011;59284;31.390;34.904;2022-12-29T00:59:24;33.33;;;17.92;;
70744;SDS011;59284;31.390;34.904;2022-12-29T01:01:51;37.00;;;19.55;;
70744;SDS011;59284;31.390;34.904;2022-12-29T01:04:17;40.00;;;19.05;;
70744;SDS011;59284;31.390;34.904;2022-12-29T01:06:43;35.53;;;17.25;;
70744;SDS011;59284;31.390;34.904;2022-12-29T01:09:09;42.03;;;19.63;;
70744;SDS011;59284;31.390;34.904;2022-12-29T01:11:54;34.75;;;18.48;;
70744;SDS011;59284;31.390;34.904;2022-12-29T01:14:20;35.72;;;19.00;;
70744;SDS011;59284;31.390;34.904;2022-12-29T01:16:47;30.13;;;16.92;;
70744;SDS011;59284;31.390;34.904;2022-12-29T01:19:14;37.08;;;18.02;;
70744;SDS011;59284;31.390;34.904;2022-12-29T01:21:40;32.47;;;17.77;;
70744;SDS011;59284;31.390;34.904;2022-12-29T01:24:06;34.47;;;17.20;;
70744;SDS011;59284;31.390;34.904;2022-12-29T01:26:32;36.20;;;17.40;;
70744;SDS011;59284;31.390;34.904;2022-12-29T01:28:58;32.93;;;17.43;;
70744;SDS011;59284;31.390;34.904;2022-12-29T01:31:23;31.65;;;16.92;;
70744;SDS011;59284;31.390;34.904;2022-12-29T01:33:49;33.43;;;17.00;;
70744;SDS011;59284;31.390;34.904;2022-12-29T01:36:15;33.37;;;16.93;;
70744;SDS011;59284;31.390;34.904;2022-12-29T01:38:43;35.78;;;16.80;;
70744;SDS011;59284;31.390;34.904;2022-12-29T01:41:10;35.88;;;17.73;;
70744;SDS011;59284;31.390;34.904;2022-12-29T01:43:41;33.55;;;18.20;;
70744;SDS011;59284;31.390;34.904;2022-12-29T01:51:58;38.28;;;17.25;;
70744;SDS011;59284;31.390;34.904;2022-12-29T01:54:29;28.73;;;15.88;;
70744;SDS011;59284;31.390;34.904;2022-12-29T01:57:03;33.47;;;16.38;;
70744;SDS011;59284;31.390;34.904;2022-12-29T01:59:34;31.42;;;15.80;;
70744;SDS011;59284;31.390;34.904;2022-12-29T02:02:05;28.60;;;15.30;;
70744;SDS011;59284;31.390;34.904;2022-12-29T02:04:32;29.42;;;15.02;;
70744;SDS011;59284;31.390;34.904;2022-12-29T03:29:12;33.10;;;15.70;;
70744;SDS011;59284;31.390;34.904;2022-12-29T03:31:41;31.65;;;16.83;;
70744;SDS011;59284;31.390;34.904;2022-12-29T03:34:07;32.03;;;17.67;;
70744;SDS011;59284;31.390;34.904;2022-12-29T03:36:47;29.45;;;15.32;;
70744;SDS011;59284;31.390;34.904;2022-12-29T03:39:18;37.20;;;18.33;;
70744;SDS011;59284;31.390;34.904;2022-12-29T03:41:47;33.30;;;17.08;;
70744;SDS011;59284;31.390;34.904;2022-12-29T03:44:19;32.65;;;16.00;;
70744;SDS011;59284;31.390;34.904;2022-12-29T03:46:50;30.77;;;15.55;;
70744;SDS011;59284;31.390;34.904;2022-12-29T03:49:16;23.13;;;13.33;;
70744;SDS011;59284;31.390;34.904;2022-12-29T03:51:44;36.20;;;17.88;;
70744;SDS011;59284;31.390;34.904;2022-12-29T03:54:10;31.80;;;16.88;;
70744;SDS011;59284;31.390;34.904;2022-12-29T03:56:35;28.30;;;16.40;;
70744;SDS011;59284;31.390;34.904;2022-12-29T03:59:01;33.57;;;18.37;;
70744;SDS011;59284;31.390;34.904;2022-12-29T04:01:27;32.13;;;16.30;;
70744;SDS011;59284;31.390;34.904;2022-12-29T04:03:52;35.00;;;18.53;;
70744;SDS011;59284;31.390;34.904;2022-12-29T04:06:18;35.00;;;17.05;;
70744;SDS011;59284;31.390;34.904;2022-12-29T04:08:44;36.13;;;16.63;;
70744;SDS011;59284;31.390;34.904;2022-12-29T04:11:09;37.03;;;18.90;;
70744;SDS011;59284;31.390;34.904;2022-12-29T04:13:35;32.97;;;17.60;;
70744;SDS011;59284;31.390;34.904;2022-12-29T04:16:01;36.83;;;18.85;;
70744;SDS011;59284;31.390;34.904;2022-12-29T04:18:26;35.77;;;16.00;;
70744;SDS011;59284;31.390;34.904;2022-12-29T04:20:52;33.40;;;18.00;;
70744;SDS011;59284;31.390;34.904;2022-12-29T04:23:29;32.78;;;17.25;;
70744;SDS011;59284;31.390;34.904;2022-12-29T04:25:57;37.75;;;17.85;;
70744;SDS011;59284;31.390;34.904;2022-12-29T04:28:23;39.95;;;19.88;;
70744;SDS011;59284;31.390;34.904;2022-12-29T04:30:48;36.63;;;17.60;;
70744;SDS011;59284;31.390;34.904;2022-12-29T04:33:14;29.63;;;16.38;;
70744;SDS011;59284;31.390;34.904;2022-12-29T04:35:42;34.13;;;17.63;;
70744;SDS011;59284;31.390;34.904;2022-12-29T04:38:08;34.97;;;16.80;;
70744;SDS011;59284;31.390;34.904;2022-12-29T04:40:34;36.25;;;18.85;;
70744;SDS011;59284;31.390;34.904;2022-12-29T04:43:00;36.72;;;19.25;;
70744;SDS011;59284;31.390;34.904;2022-12-29T04:45:25;38.90;;;18.40;;
70744;SDS011;59284;31.390;34.904;2022-12-29T04:47:51;39.55;;;18.30;;
70744;SDS011;59284;31.390;34.904;2022-12-29T04:50:17;43.27;;;20.23;;
70744;SDS011;59284;31.390;34.904;2022-12-29T04:52:43;34.47;;;17.23;;
70744;SDS011;59284;31.390;34.904;2022-12-29T04:55:09;39.03;;;19.53;;
70744;SDS011;59284;31.390;34.904;2022-12-29T04:57:35;43.38;;;19.20;;
70744;SDS011;59284;31.390;34.904;2022-12-29T05:00:00;36.58;;;18.35;;
70744;SDS011;59284;31.390;34.904;2022-12-29T05:02:26;34.67;;;17.00;;
70744;SDS011;59284;31.390;34.904;2022-12-29T05:04:52;32.00;;;17.35;;
70744;SDS011;59284;31.390;34.904;2022-12-29T05:07:18;34.50;;;16.97;;
70744;SDS011;59284;31.390;34.904;2022-12-29T05:09:44;33.97;;;16.77;;
70744;SDS011;59284;31.390;34.904;2022-12-29T05:12:09;36.75;;;15.55;;
70744;SDS011;59284;31.390;34.904;2022-12-29T05:14:38;37.60;;;19.23;;
70744;SDS011;59284;31.390;34.904;2022-12-29T05:17:04;32.95;;;17.75;;
70744;SDS011;59284;31.390;34.904;2022-12-29T05:19:32;43.67;;;19.63;;
70744;SDS011;59284;31.390;34.904;2022-12-29T05:22:00;43.63;;;18.85;;
70744;SDS011;59284;31.390;34.904;2022-12-29T05:24:26;42.53;;;20.17;;
70744;SDS011;59284;31.390;34.904;2022-12-29T05:26:52;38.73;;;19.23;;
70744;SDS011;59284;31.390;34.904;2022-12-29T05:29:17;40.55;;;20.20;;
70744;SDS011;59284;31.390;34.904;2022-12-29T05:31:43;38.37;;;18.77;;
70744;SDS011;59284;31.390;34.904;2022-12-29T05:34:10;41.10;;;18.70;;
70744;SDS011;59284;31.390;34.904;2022-12-29T05:36:36;35.78;;;17.27;;
70744;SDS011;59284;31.390;34.904;2022-12-29T05:39:02;33.83;;;17.30;;
70744;SDS011;59284;31.390;34.904;2022-12-29T05:41:28;40.22;;;20.60;;
70744;SDS011;59284;31.390;34.904;2022-12-29T05:43:54;33.50;;;18.17;;
70744;SDS011;59284;31.390;34.904;2022-12-29T05:46:20;25.43;;;15.20;;
70744;SDS011;59284;31.390;34.904;2022-12-29T05:48:46;40.05;;;20.40;;
70744;SDS011;59284;31.390;34.904;2022-12-29T05:51:11;35.97;;;18.37;;
70744;SDS011;59284;31.390;34.904;2022-12-29T05:53:37;38.83;;;18.88;;
70744;SDS011;59284;31.390;34.904;2022-12-29T05:56:03;39.47;;;19.60;;
70744;SDS011;59284;31.390;34.904;2022-12-29T05:58:31;38.88;;;18.73;;
70744;SDS011;59284;31.390;34.904;2022-12-29T06:00:58;36.53;;;19.10;;
70744;SDS011;59284;31.390;34.904;2022-12-29T06:03:23;44.97;;;20.97;;
70744;SDS011;59284;31.390;34.904;2022-12-29T06:05:49;40.47;;;21.02;;
70744;SDS011;59284;31.390;34.904;2022-12-29T06:08:15;38.50;;;17.73;;
70744;SDS011;59284;31.390;34.904;2022-12-29T06:10:41;38.95;;;20.50;;
70744;SDS011;59284;31.390;34.904;2022-12-29T06:13:06;39.03;;;20.17;;
70744;SDS011;59284;31.390;34.904;2022-12-29T06:15:33;36.53;;;19.92;;
70744;SDS011;59284;31.390;34.904;2022-12-29T06:17:59;45.97;;;21.77;;
70744;SDS011;59284;31.390;34.904;2022-12-29T06:20:25;38.27;;;20.73;;
70744;SDS011;59284;31.390;34.904;2022-12-29T06:22:51;40.95;;;19.98;;
70744;SDS011;59284;31.390;34.904;2022-12-29T06:25:16;38.63;;;19.63;;
70744;SDS011;59284;31.390;34.904;2022-12-29T06:27:42;37.97;;;18.42;;
70744;SDS011;59284;31.390;34.904;2022-12-29T06:30:08;34.97;;;18.80;;
70744;SDS011;59284;31.390;34.904;2022-12-29T06:32:35;37.53;;;19.42;;
70744;SDS011;59284;31.390;34.904;2022-12-29T06:35:01;38.53;;;21.02;;
70744;SDS011;59284;31.390;34.904;2022-12-29T06:37:28;33.95;;;18.98;;
70744;SDS011;59284;31.390;34.904;2022-12-29T06:39:54;34.60;;;18.73;;
70744;SDS011;59284;31.390;34.904;2022-12-29T06:42:21;41.45;;;20.95;;
70744;SDS011;59284;31.390;34.904;2022-12-29T06:44:46;32.95;;;18.27;;
70744;SDS011;59284;31.390;34.904;2022-12-29T06:47:12;39.97;;;20.33;;
70744;SDS011;59284;31.390;34.904;2022-12-29T06:49:38;35.25;;;20.48;;
70744;SDS011;59284;31.390;34.904;2022-12-29T06:52:04;35.90;;;18.70;;
70744;SDS011;59284;31.390;34.904;2022-12-29T06:54:30;35.17;;;19.13;;
70744;SDS011;59284;31.390;34.904;2022-12-29T06:56:56;35.50;;;18.92;;
70744;SDS011;59284;31.390;34.904;2022-12-29T06:59:22;32.35;;;18.42;;
70744;SDS011;59284;31.390;34.904;2022-12-29T07:01:48;30.73;;;16.90;;
70744;SDS011;59284;31.390;34.904;2022-12-29T07:04:13;38.15;;;18.95;;
70744;SDS011;59284;31.390;34.904;2022-12-29T07:06:39;28.47;;;15.33;;
70744;SDS011;59284;31.390;34.904;2022-12-29T07:09:06;28.95;;;17.15;;
70744;SDS011;59284;31.390;34.904;2022-12-29T07:11:33;33.28;;;18.52;;
70744;SDS011;59284;31.390;34.904;2022-12-29T07:13:59;29.92;;;17.67;;
70744;SDS011;59284;31.390;34.904;2022-12-29T07:16:24;32.17;;;17.57;;
70744;SDS011;59284;31.390;34.904;2022-12-29T07:18:50;26.42;;;16.20;;
70744;SDS011;59284;31.390;34.904;2022-12-29T07:21:16;30.30;;;16.55;;
70744;SDS011;59284;31.390;34.904;2022-12-29T07:23:43;30.30;;;17.45;;
70744;SDS011;59284;31.390;34.904;2022-12-29T07:26:11;27.73;;;16.37;;
70744;SDS011;59284;31.390;34.904;2022-12-29T07:28:38;29.05;;;17.60;;
70744;SDS011;59284;31.390;34.904;2022-12-29T07:31:04;26.42;;;16.42;;
70744;SDS011;59284;31.390;34.904;2022-12-29T07:33:41;25.05;;;15.25;;
70744;SDS011;59284;31.390;34.904;2022-12-29T07:36:08;24.40;;;14.70;;
70744;SDS011;59284;31.390;34.904;2022-12-29T07:38:34;24.30;;;15.83;;
70744;SDS011;59284;31.390;34.904;2022-12-29T07:41:00;23.63;;;15.43;;
70744;SDS011;59284;31.390;34.904;2022-12-29T07:43:26;24.77;;;15.73;;
70744;SDS011;59284;31.390;34.904;2022-12-29T07:45:51;22.48;;;13.75;;
70744;SDS011;59284;31.390;34.904;2022-12-29T07:48:17;23.17;;;13.57;;
70744;SDS011;59284;31.390;34.904;2022-12-29T07:50:42;23.67;;;12.80;;
70744;SDS011;59284;31.390;34.904;2022-12-29T07:53:08;22.40;;;12.47;;
70744;SDS011;59284;31.390;34.904;2022-12-29T07:55:34;20.52;;;12.27;;
70744;SDS011;59284;31.390;34.904;2022-12-29T07:58:00;21.13;;;11.90;;
70744;SDS011;59284;31.390;34.904;2022-12-29T08:00:25;19.70;;;11.50;;
70744;SDS011;59284;31.390;34.904;2022-12-29T08:02:51;16.33;;;10.80;;
70744;SDS011;59284;31.390;34.904;2022-12-29T08:05:17;19.63;;;11.63;;
70744;SDS011;59284;31.390;34.904;2022-12-29T08:07:43;17.60;;;9.75;;
70744;SDS011;59284;31.390;34.904;2022-12-29T08:10:10;17.00;;;9.23;;
70744;SDS011;59284;31.390;34.904;2022-12-29T08:12:40;14.00;;;9.10;;
70744;SDS011;59284;31.390;34.904;2022-12-29T08:15:07;14.02;;;9.23;;
70744;SDS011;59284;31.390;34.904;2022-12-29T08:17:34;15.40;;;8.88;;
70744;SDS011;59284;31.390;34.904;2022-12-29T08:19:59;17.23;;;9.30;;
70744;SDS011;59284;31.390;34.904;2022-12-29T08:22:25;17.00;;;9.40;;
70744;SDS011;59284;31.390;34.904;2022-12-29T08:24:51;13.55;;;8.90;;
70744;SDS011;59284;31.390;34.904;2022-12-29T08:27:17;13.90;;;8.90;;
70744;SDS011;59284;31.390;34.904;2022-12-29T08:29:43;14.77;;;9.13;;
70744;SDS011;59284;31.390;34.904;2022-12-29T08:32:09;12.52;;;9.07;;
70744;SDS011;59284;31.390;34.904;2022-12-29T08:34:35;14.40;;;8.93;;
70744;SDS011;59284;31.390;34.904;2022-12-29T08:37:01;15.87;;;8.60;;
70744;SDS011;59284;31.390;34.904;2022-12-29T08:39:27;19.58;;;9.05;;
70744;SDS011;59284;31.390;34.904;2022-12-29T08:41:52;14.43;;;9.10;;
70744;SDS011;59284;31.390;34.904;2022-12-29T08:44:18;12.73;;;8.43;;
70744;SDS011;59284;31.390;34.904;2022-12-29T08:46:44;18.77;;;10.87;;
70744;SDS011;59284;31.390;34.904;2022-12-29T08:49:09;17.23;;;10.43;;
70744;SDS011;59284;31.390;34.904;2022-12-29T08:51:35;18.17;;;10.47;;
70744;SDS011;59284;31.390;34.904;2022-12-29T08:54:01;16.92;;;10.35;;
70744;SDS011;59284;31.390;34.904;2022-12-29T08:56:27;15.17;;;10.07;;
70744;SDS011;59284;31.390;34.904;2022-12-29T08:58:52;15.30;;;10.18;;
70744;SDS011;59284;31.390;34.904;2022-12-29T09:01:18;14.20;;;9.40;;
70744;SDS011;59284;31.390;34.904;2022-12-29T09:03:45;14.23;;;9.27;;
70744;SDS011;59284;31.390;34.904;2022-12-29T09:06:10;12.13;;;8.05;;
70744;SDS011;59284;31.390;34.904;2022-12-29T09:08:36;13.25;;;7.82;;
70744;SDS011;59284;31.390;34.904;2022-12-29T09:11:06;11.93;;;8.00;;
70744;SDS011;59284;31.390;34.904;2022-12-29T09:13:53;10.70;;;8.35;;
70744;SDS011;59284;31.390;34.904;2022-12-29T09:16:19;10.68;;;7.60;;
70744;SDS011;59284;31.390;34.904;2022-12-29T09:18:46;10.95;;;7.55;;
70744;SDS011;59284;31.390;34.904;2022-12-29T09:21:12;11.27;;;7.77;;
70744;SDS011;59284;31.390;34.904;2022-12-29T09:23:38;11.65;;;7.57;;
70744;SDS011;59284;31.390;34.904;2022-12-29T09:26:05;9.30;;;7.15;;
70744;SDS011;59284;31.390;34.904;2022-12-29T09:28:32;11.67;;;6.63;;
70744;SDS011;59284;31.390;34.904;2022-12-29T09:30:58;8.32;;;6.70;;
70744;SDS011;59284;31.390;34.904;2022-12-29T09:33:24;12.77;;;7.45;;
70744;SDS011;59284;31.390;34.904;2022-12-29T09:35:55;10.55;;;7.22;;
70744;SDS011;59284;31.390;34.904;2022-12-29T09:38:23;9.30;;;7.53;;
70744;SDS011;59284;31.390;34.904;2022-12-29T09:40:50;9.17;;;7.33;;
70744;SDS011;59284;31.390;34.904;2022-12-29T09:43:36;10.80;;;7.22;;
70744;SDS011;59284;31.390;34.904;2022-12-29T09:46:26;9.90;;;6.70;;
70744;SDS011;59284;31.390;34.904;2022-12-29T09:49:05;11.02;;;5.78;;
70744;SDS011;59284;31.390;34.904;2022-12-29T09:51:38;8.80;;;5.80;;
70744;SDS011;59284;31.390;34.904;2022-12-29T09:54:28;7.57;;;6.17;;
70744;SDS011;59284;31.390;34.904;2022-12-29T09:57:02;11.90;;;4.82;;
70744;SDS011;59284;31.390;34.904;2022-12-29T09:59:36;6.53;;;4.97;;
70744;SDS011;59284;31.390;34.904;2022-12-29T10:05:01;7.10;;;5.27;;
70744;SDS011;59284;31.390;34.904;2022-12-29T10:10:20;8.63;;;5.95;;
70744;SDS011;59284;31.390;34.904;2022-12-29T10:13:08;7.63;;;4.93;;
70744;SDS011;59284;31.390;34.904;2022-12-29T10:23:50;11.85;;;7.47;;
70744;SDS011;59284;31.390;34.904;2022-12-29T10:26:19;12.02;;;8.43;;
70744;SDS011;59284;31.390;34.904;2022-12-29T10:28:49;11.60;;;8.33;;
70744;SDS011;59284;31.390;34.904;2022-12-29T10:31:21;12.77;;;8.40;;
70744;SDS011;59284;31.390;34.904;2022-12-29T10:33:50;14.80;;;9.45;;
70744;SDS011;59284;31.390;34.904;2022-12-29T10:36:33;12.02;;;9.10;;
70744;SDS011;59284;31.390;34.904;2022-12-29T10:39:29;11.15;;;8.48;;
70744;SDS011;59284;31.390;34.904;2022-12-29T10:41:57;14.40;;;8.30;;
70744;SDS011;59284;31.390;34.904;2022-12-29T10:44:43;13.18;;;8.65;;
70744;SDS011;59284;31.390;34.904;2022-12-29T10:47:14;13.90;;;9.40;;
70744;SDS011;59284;31.390;34.904;2022-12-29T10:49:47;13.38;;;9.63;;
70744;SDS011;59284;31.390;34.904;2022-12-29T10:52:13;12.60;;;10.70;;
70744;SDS011;59284;31.390;34.904;2022-12-29T10:59:42;13.27;;;9.43;;
70744;SDS011;59284;31.390;34.904;2022-12-29T11:07:11;14.70;;;9.88;;
70744;SDS011;59284;31.390;34.904;2022-12-29T11:09:38;13.35;;;10.82;;
70744;SDS011;59284;31.390;34.904;2022-12-29T11:12:25;13.40;;;9.43;;
70744;SDS011;59284;31.390;34.904;2022-12-29T11:17:47;12.40;;;9.18;;
70744;SDS011;59284;31.390;34.904;2022-12-29T11:20:31;14.18;;;9.90;;
70744;SDS011;59284;31.390;34.904;2022-12-29T11:23:00;12.60;;;9.65;;
70744;SDS011;59284;31.390;34.904;2022-12-29T11:25:26;13.37;;;9.43;;
70744;SDS011;59284;31.390;34.904;2022-12-29T11:28:00;14.05;;;9.75;;
70744;SDS011;59284;31.390;34.904;2022-12-29T11:30:30;16.48;;;11.50;;
70744;SDS011;59284;31.390;34.904;2022-12-29T11:32:57;18.00;;;13.77;;
70744;SDS011;59284;31.390;34.904;2022-12-29T11:38:20;19.73;;;14.43;;
70744;SDS011;59284;31.390;34.904;2022-12-29T11:40:49;19.08;;;15.23;;
70744;SDS011;59284;31.390;34.904;2022-12-29T11:43:34;20.35;;;14.98;;
70744;SDS011;59284;31.390;34.904;2022-12-29T11:46:03;18.55;;;13.85;;
70744;SDS011;59284;31.390;34.904;2022-12-29T11:48:39;21.10;;;14.10;;
70744;SDS011;59284;31.390;34.904;2022-12-29T11:51:06;22.07;;;14.50;;
70744;SDS011;59284;31.390;34.904;2022-12-29T11:56:02;19.77;;;14.40;;
70744;SDS011;59284;31.390;34.904;2022-12-29T11:58:31;19.17;;;13.10;;
70744;SDS011;59284;31.390;34.904;2022-12-29T12:04:01;21.43;;;14.73;;
70744;SDS011;59284;31.390;34.904;2022-12-29T12:06:32;24.60;;;14.75;;
70744;SDS011;59284;31.390;34.904;2022-12-29T12:09:05;23.08;;;15.15;;
70744;SDS011;59284;31.390;34.904;2022-12-29T12:11:40;17.83;;;12.57;;
70744;SDS011;59284;31.390;34.904;2022-12-29T12:14:20;19.27;;;13.85;;
70744;SDS011;59284;31.390;34.904;2022-12-29T12:16:53;19.33;;;14.00;;
70744;SDS011;59284;31.390;34.904;2022-12-29T12:19:32;23.80;;;14.57;;
70744;SDS011;59284;31.390;34.904;2022-12-29T12:22:28;22.10;;;15.13;;
70744;SDS011;59284;31.390;34.904;2022-12-29T12:30:19;18.77;;;12.73;;
70744;SDS011;59284;31.390;34.904;2022-12-29T12:32:48;16.25;;;11.80;;
70744;SDS011;59284;31.390;34.904;2022-12-29T12:44:28;15.10;;;11.37;;
70744;SDS011;59284;31.390;34.904;2022-12-29T12:47:10;17.17;;;12.43;;
70744;SDS011;59284;31.390;34.904;2022-12-29T12:50:06;16.23;;;12.65;;
70744;SDS011;59284;31.390;34.904;2022-12-29T12:53:45;16.63;;;11.90;;
70744;SDS011;59284;31.390;34.904;2022-12-29T13:06:37;16.20;;;11.87;;
70744;SDS011;59284;31.390;34.904;2022-12-29T13:17:36;13.77;;;11.52;;
70744;SDS011;59284;31.390;34.904;2022-12-29T13:22:44;17.30;;;12.10;;
70744;SDS011;59284;31.390;34.904;2022-12-29T13:25:27;19.15;;;12.75;;
70744;SDS011;59284;31.390;34.904;2022-12-29T13:33:23;17.83;;;11.53;;
70744;SDS011;59284;31.390;34.904;2022-12-29T13:36:49;15.52;;;11.63;;
70744;SDS011;59284;31.390;34.904;2022-12-29T13:41:58;15.27;;;11.30;;
70744;SDS011;59284;31.390;34.904;2022-12-29T13:44:39;15.50;;;11.07;;
70744;SDS011;59284;31.390;34.904;2022-12-29T13:47:20;18.33;;;12.97;;
70744;SDS011;59284;31.390;34.904;2022-12-29T13:50:17;23.13;;;14.82;;
70744;SDS011;59284;31.390;34.904;2022-12-29T13:55:45;28.65;;;18.98;;
70744;SDS011;59284;31.390;34.904;2022-12-29T14:01:17;26.80;;;18.40;;
70744;SDS011;59284;31.390;34.904;2022-12-29T14:04:02;29.20;;;17.90;;
70744;SDS011;59284;31.390;34.904;2022-12-29T14:06:39;28.58;;;18.08;;
70744;SDS011;59284;31.390;34.904;2022-12-29T14:09:06;29.10;;;19.40;;
70744;SDS011;59284;31.390;34.904;2022-12-29T14:12:19;29.33;;;17.52;;
70744;SDS011;59284;31.390;34.904;2022-12-29T14:14:47;28.47;;;18.47;;
70744;SDS011;59284;31.390;34.904;2022-12-29T14:17:16;29.80;;;18.13;;
70744;SDS011;59284;31.390;34.904;2022-12-29T14:19:45;31.75;;;19.63;;
70744;SDS011;59284;31.390;34.904;2022-12-29T14:22:27;31.02;;;18.48;;
70744;SDS011;59284;31.390;34.904;2022-12-29T14:24:54;35.90;;;19.88;;
70744;SDS011;59284;31.390;34.904;2022-12-29T14:29:46;30.33;;;18.40;;
70744;SDS011;59284;31.390;34.904;2022-12-29T14:34:45;32.17;;;18.47;;
70744;SDS011;59284;31.390;34.904;2022-12-29T14:40:15;35.00;;;19.20;;
70744;SDS011;59284;31.390;34.904;2022-12-29T14:42:46;34.83;;;18.42;;
70744;SDS011;59284;31.390;34.904;2022-12-29T14:47:39;34.80;;;21.00;;
70744;SDS011;59284;31.390;34.904;2022-12-29T14:50:22;34.05;;;18.88;;
70744;SDS011;59284;31.390;34.904;2022-12-29T15:04:05;35.13;;;19.35;;
70744;SDS011;59284;31.390;34.904;2022-12-29T15:06:40;38.33;;;19.77;;
70744;SDS011;59284;31.390;34.904;2022-12-29T15:09:13;37.80;;;19.93;;
70744;SDS011;59284;31.390;34.904;2022-12-29T15:12:15;40.03;;;20.33;;
70744;SDS011;59284;31.390;34.904;2022-12-29T15:14:48;45.42;;;21.85;;
70744;SDS011;59284;31.390;34.904;2022-12-29T15:17:32;39.10;;;20.95;;
70744;SDS011;59284;31.390;34.904;2022-12-29T15:20:02;37.83;;;20.15;;
70744;SDS011;59284;31.390;34.904;2022-12-29T15:22:45;37.33;;;19.87;;
70744;SDS011;59284;31.390;34.904;2022-12-29T15:25:47;38.30;;;19.92;;
70744;SDS011;59284;31.390;34.904;2022-12-29T15:28:22;38.75;;;19.13;;
70744;SDS011;59284;31.390;34.904;2022-12-29T15:33:22;33.38;;;18.77;;
70744;SDS011;59284;31.390;34.904;2022-12-29T15:35:51;39.90;;;19.80;;
70744;SDS011;59284;31.390;34.904;2022-12-29T15:38:28;37.42;;;20.00;;
70744;SDS011;59284;31.390;34.904;2022-12-29T15:40:58;41.25;;;21.00;;
70744;SDS011;59284;31.390;34.904;2022-12-29T15:46:32;40.25;;;21.67;;
70744;SDS011;59284;31.390;34.904;2022-12-29T15:48:58;44.20;;;22.43;;
70744;SDS011;59284;31.390;34.904;2022-12-29T15:51:31;47.55;;;24.35;;
70744;SDS011;59284;31.390;34.904;2022-12-29T15:54:01;45.78;;;22.33;;
70744;SDS011;59284;31.390;34.904;2022-12-29T15:56:31;45.08;;;22.65;;
70744;SDS011;59284;31.390;34.904;2022-12-29T15:58:58;46.77;;;22.00;;
70744;SDS011;59284;31.390;34.904;2022-12-29T16:01:35;44.65;;;22.88;;
70744;SDS011;59284;31.390;34.904;2022-12-29T16:04:06;44.45;;;22.95;;
70744;SDS011;59284;31.390;34.904;2022-12-29T16:06:37;45.65;;;22.65;;
70744;SDS011;59284;31.390;34.904;2022-12-29T16:09:06;46.15;;;21.95;;
70744;SDS011;59284;31.390;34.904;2022-12-29T16:12:01;48.40;;;22.90;;
70744;SDS011;59284;31.390;34.904;2022-12-29T16:14:43;41.90;;;21.10;;
70744;SDS011;59284;31.390;34.904;2022-12-29T16:17:16;52.63;;;22.95;;
70744;SDS011;59284;31.390;34.904;2022-12-29T16:19:51;46.95;;;21.98;;
70744;SDS011;59284;31.390;34.904;2022-12-29T16:22:33;53.75;;;30.67;;
70744;SDS011;59284;31.390;34.904;2022-12-29T16:25:06;46.17;;;23.00;;
70744;SDS011;59284;31.390;34.904;2022-12-29T16:27:40;46.17;;;23.10;;
70744;SDS011;59284;31.390;34.904;2022-12-29T16:30:16;46.53;;;22.65;;
70744;SDS011;59284;31.390;34.904;2022-12-29T16:32:48;52.22;;;24.05;;
70744;SDS011;59284;31.390;34.904;2022-12-29T16:37:46;51.30;;;22.97;;
70744;SDS011;59284;31.390;34.904;2022-12-29T16:40:23;56.45;;;24.80;;
70744;SDS011;59284;31.390;34.904;2022-12-29T16:42:56;52.35;;;25.00;;
70744;SDS011;59284;31.390;34.904;2022-12-29T16:50:35;55.57;;;23.77;;
70744;SDS011;59284;31.390;34.904;2022-12-29T16:53:02;55.55;;;24.75;;
70744;SDS011;59284;31.390;34.904;2022-12-29T16:55:30;58.38;;;25.33;;
70744;SDS011;59284;31.390;34.904;2022-12-29T16:57:56;54.10;;;24.65;;
70744;SDS011;59284;31.390;34.904;2022-12-29T17:00:24;56.00;;;25.10;;
70744;SDS011;59284;31.390;34.904;2022-12-29T17:03:01;54.10;;;25.67;;
70744;SDS011;59284;31.390;34.904;2022-12-29T17:05:28;57.08;;;26.02;;
70744;SDS011;59284;31.390;34.904;2022-12-29T17:07:55;57.90;;;24.83;;
70744;SDS011;59284;31.390;34.904;2022-12-29T17:10:25;59.67;;;25.95;;
70744;SDS011;59284;31.390;34.904;2022-12-29T17:13:11;54.73;;;25.40;;
70744;SDS011;59284;31.390;34.904;2022-12-29T17:15:37;59.60;;;26.30;;
70744;SDS011;59284;31.390;34.904;2022-12-29T17:18:03;56.78;;;27.70;;
70744;SDS011;59284;31.390;34.904;2022-12-29T17:20:30;55.00;;;25.73;;
70744;SDS011;59284;31.390;34.904;2022-12-29T17:22:57;63.37;;;30.47;;
70744;SDS011;59284;31.390;34.904;2022-12-29T17:25:31;60.30;;;30.00;;
70744;SDS011;59284;31.390;34.904;2022-12-29T17:28:00;56.20;;;26.75;;
70744;SDS011;59284;31.390;34.904;2022-12-29T17:30:27;55.70;;;25.50;;
70744;SDS011;59284;31.390;34.904;2022-12-29T17:32:59;59.72;;;26.98;;
70744;SDS011;59284;31.390;34.904;2022-12-29T17:35:25;61.93;;;25.80;;
70744;SDS011;59284;31.390;34.904;2022-12-29T17:37:52;63.85;;;28.00;;
70744;SDS011;59284;31.390;34.904;2022-12-29T17:40:19;64.88;;;27.60;;
70744;SDS011;59284;31.390;34.904;2022-12-29T17:42:48;60.85;;;27.05;;
70744;SDS011;59284;31.390;34.904;2022-12-29T17:45:21;56.35;;;27.25;;
70744;SDS011;59284;31.390;34.904;2022-12-29T17:47:52;57.47;;;27.37;;
70744;SDS011;59284;31.390;34.904;2022-12-29T17:50:19;60.88;;;28.20;;
70744;SDS011;59284;31.390;34.904;2022-12-29T17:52:57;58.08;;;26.55;;
70744;SDS011;59284;31.390;34.904;2022-12-29T17:55:26;57.17;;;27.48;;
70744;SDS011;59284;31.390;34.904;2022-12-29T17:57:52;64.50;;;30.25;;
70744;SDS011;59284;31.390;34.904;2022-12-29T18:00:19;62.63;;;29.40;;